Time;durP1;ratioP1;P1;durP2;ratioP2;P2;SDS_P1;SDS_P2;PMS_P1;PMS_P2;Temp;Humidity;BMP_temperature;BMP_pressure;BME280_temperature;BME280_humidity;BME280_pressure;Samples;Min_cycle;Max_cycle;Signal;HPM_P1;HPM_P2
2023/07/26 00:00:18;;;;;;;0.10;0.10;;;16.70;99.90;;;;;;5034392;28;20189;-79
2023/07/26 00:02:43;;;;;;;0.10;0.10;;;16.70;99.90;;;;;;5030038;28;20552;-79
2023/07/26 00:05:09;;;;;;;0.10;0.10;;;16.70;99.90;;;;;;5048359;28;21110;-79
2023/07/26 00:07:34;;;;;;;0.10;0.10;;;16.70;99.90;;;;;;5033608;28;20198;-79
2023/07/26 00:10:01;;;;;;;0.10;0.10;;;16.60;99.90;;;;;;5034266;28;20211;-79
2023/07/26 00:12:26;;;;;;;0.10;0.10;;;16.70;99.90;;;;;;5031394;28;20712;-79
2023/07/26 00:14:53;;;;;;;0.10;0.10;;;16.70;99.90;;;;;;5033004;28;20182;-79
2023/07/26 00:17:18;;;;;;;0.10;0.10;;;16.70;99.90;;;;;;5031438;28;20252;-79
2023/07/26 00:19:44;;;;;;;0.10;0.10;;;16.70;99.90;;;;;;5035903;28;20190;-79
2023/07/26 00:22:09;;;;;;;0.10;0.10;;;16.70;99.90;;;;;;5031550;28;20213;-79
2023/07/26 00:24:35;;;;;;;0.10;0.10;;;16.70;99.90;;;;;;5033424;28;20202;-79
2023/07/26 00:27:00;;;;;;;0.10;0.10;;;16.70;99.90;;;;;;5031624;28;20210;-79
2023/07/26 00:29:26;;;;;;;0.10;0.10;;;16.70;99.90;;;;;;5033057;28;20674;-79
2023/07/26 00:31:51;;;;;;;0.10;0.10;;;16.70;99.90;;;;;;5033117;28;20210;-79
2023/07/26 00:34:17;;;;;;;0.10;0.10;;;16.70;99.90;;;;;;5031578;28;20729;-79
2023/07/26 00:36:42;;;;;;;0.10;0.10;;;16.70;99.90;;;;;;5033915;28;20187;-78
2023/07/26 00:39:08;;;;;;;0.10;0.10;;;16.70;99.90;;;;;;5032446;28;20209;-79
2023/07/26 00:41:33;;;;;;;0.10;0.10;;;16.60;99.90;;;;;;5033351;28;20683;-79
2023/07/26 00:43:59;;;;;;;0.10;0.10;;;16.60;99.90;;;;;;5032474;28;20190;-79
2023/07/26 00:46:25;;;;;;;0.10;0.10;;;16.50;99.90;;;;;;5031612;28;20185;-79
2023/07/26 00:48:51;;;;;;;0.10;0.10;;;16.40;99.90;;;;;;5032930;28;20217;-79
2023/07/26 00:51:17;;;;;;;0.10;0.10;;;16.30;99.90;;;;;;5032723;28;20510;-79
2023/07/26 00:53:42;;;;;;;0.10;0.10;;;16.20;99.90;;;;;;5032145;28;20217;-79
2023/07/26 00:56:09;;;;;;;0.10;0.10;;;16.10;99.90;;;;;;5034021;28;20182;-79
2023/07/26 00:58:35;;;;;;;0.10;0.10;;;16.10;99.90;;;;;;5033121;28;20261;-79
2023/07/26 01:01:00;;;;;;;0.10;0.10;;;16.00;99.90;;;;;;5033616;28;20295;-79
2023/07/26 01:03:27;;;;;;;0.10;0.10;;;16.00;99.90;;;;;;5036764;28;20178;-79
2023/07/26 01:06:26;;;;;;;0.10;0.10;;;15.90;99.90;;;;;;5035299;28;20193;-79
2023/07/26 01:09:10;;;;;;;0.10;0.10;;;15.90;99.90;;;;;;5037574;28;20202;-79
2023/07/26 01:11:50;;;;;;;0.10;0.10;;;15.90;99.90;;;;;;5035833;28;20208;-79
2023/07/26 01:14:23;;;;;;;0.10;0.10;;;15.80;99.90;;;;;;5034563;28;20185;-79
2023/07/26 01:16:49;;;;;;;0.10;0.10;;;15.90;99.90;;;;;;5036134;28;20183;-79
2023/07/26 01:19:15;;;;;;;0.10;0.10;;;15.90;99.90;;;;;;5034885;28;20232;-79
2023/07/26 01:21:40;;;;;;;0.10;0.10;;;15.80;99.90;;;;;;5035752;28;20254;-79
2023/07/26 01:24:06;;;;;;;0.10;0.10;;;15.80;99.90;;;;;;5034513;28;20651;-79
2023/07/26 01:26:32;;;;;;;0.10;0.10;;;15.70;99.90;;;;;;5036792;28;20182;-79
2023/07/26 01:28:57;;;;;;;0.10;0.10;;;15.70;99.90;;;;;;5035566;28;20213;-79
2023/07/26 01:31:24;;;;;;;0.10;0.10;;;15.60;99.90;;;;;;5035694;28;20203;-79
2023/07/26 01:33:52;;;;;;;0.10;0.10;;;15.60;99.90;;;;;;5037121;28;20458;-79
2023/07/26 01:36:20;;;;;;;0.10;0.10;;;15.50;99.90;;;;;;5036762;28;20283;-79
2023/07/26 01:38:46;;;;;;;0.10;0.10;;;15.50;99.90;;;;;;5036233;28;20195;-79
2023/07/26 01:41:12;;;;;;;0.10;0.10;;;15.40;99.90;;;;;;5033363;28;20228;-79
2023/07/26 01:43:38;;;;;;;0.10;0.10;;;15.30;99.90;;;;;;5052730;28;20189;-79
2023/07/26 01:46:03;;;;;;;0.10;0.10;;;15.30;99.90;;;;;;5036339;28;21066;-79
2023/07/26 01:48:29;;;;;;;0.10;0.10;;;15.30;99.90;;;;;;5035666;28;22149;-79
2023/07/26 01:50:54;;;;;;;0.10;0.10;;;15.20;99.90;;;;;;5035005;28;20669;-79
2023/07/26 01:53:19;;;;;;;0.10;0.10;;;15.20;99.90;;;;;;5036295;28;20247;-79
2023/07/26 01:55:46;;;;;;;0.10;0.10;;;15.10;99.90;;;;;;5035886;28;20178;-79
2023/07/26 01:58:12;;;;;;;0.10;0.10;;;15.00;99.90;;;;;;5035374;28;20192;-79
2023/07/26 02:00:37;;;;;;;0.10;0.10;;;15.10;99.90;;;;;;5034895;28;20204;-79
2023/07/26 02:03:03;;;;;;;0.10;0.10;;;15.10;99.90;;;;;;5036693;28;20591;-79
2023/07/26 02:05:28;;;;;;;0.10;0.10;;;15.00;99.90;;;;;;5034853;28;20186;-79
2023/07/26 02:07:54;;;;;;;0.10;0.10;;;15.00;99.90;;;;;;5034935;28;20233;-79
2023/07/26 02:10:20;;;;;;;0.10;0.10;;;15.00;99.90;;;;;;5035633;28;20285;-79
2023/07/26 02:12:45;;;;;;;0.10;0.10;;;15.00;99.90;;;;;;5033351;28;20616;-79
2023/07/26 02:15:11;;;;;;;0.10;0.10;;;15.00;99.90;;;;;;5035208;28;20193;-79
2023/07/26 02:17:36;;;;;;;0.10;0.10;;;15.10;99.90;;;;;;5037138;28;20200;-79
2023/07/26 02:20:04;;;;;;;0.10;0.10;;;15.20;99.90;;;;;;5040425;28;20212;-79
2023/07/26 02:22:29;;;;;;;0.10;0.10;;;15.20;99.90;;;;;;5036038;28;20296;-79
2023/07/26 02:24:55;;;;;;;0.10;0.10;;;15.20;99.90;;;;;;5037003;28;20225;-79
2023/07/26 02:27:20;;;;;;;0.10;0.10;;;15.20;99.90;;;;;;5033921;28;20218;-79
2023/07/26 02:29:46;;;;;;;0.10;0.10;;;15.20;99.90;;;;;;5037315;28;20230;-79
2023/07/26 02:32:11;;;;;;;0.10;0.10;;;14.80;99.90;;;;;;5035638;28;20240;-79
2023/07/26 02:34:37;;;;;;;0.10;0.10;;;14.60;99.90;;;;;;5035418;28;20190;-79
2023/07/26 02:37:03;;;;;;;0.10;0.10;;;14.80;99.90;;;;;;5034790;28;20563;-79
2023/07/26 02:39:29;;;;;;;0.10;0.10;;;14.90;99.90;;;;;;5034202;28;20280;-79
2023/07/26 02:41:54;;;;;;;0.10;0.10;;;15.00;99.90;;;;;;5035116;28;20291;-79
2023/07/26 02:44:20;;;;;;;0.10;0.10;;;15.10;99.90;;;;;;5035199;28;20193;-79
2023/07/26 02:46:45;;;;;;;0.10;0.10;;;15.30;99.90;;;;;;5035866;28;20192;-79
2023/07/26 02:49:11;;;;;;;0.10;0.10;;;15.40;99.90;;;;;;5033175;28;20185;-79
2023/07/26 02:51:36;;;;;;;0.10;0.10;;;15.40;99.90;;;;;;5034496;28;20197;-80
2023/07/26 02:54:02;;;;;;;0.10;0.10;;;15.50;99.90;;;;;;5035842;28;20554;-79
2023/07/26 02:56:27;;;;;;;0.10;0.10;;;15.50;99.90;;;;;;5032881;28;20326;-79
2023/07/26 02:58:53;;;;;;;0.10;0.10;;;15.50;99.90;;;;;;5037376;28;20194;-79
2023/07/26 03:01:18;;;;;;;0.10;0.10;;;15.50;99.90;;;;;;5033677;28;20216;-79
2023/07/26 03:03:44;;;;;;;0.10;0.10;;;15.50;99.90;;;;;;5036079;28;20184;-79
2023/07/26 03:06:11;;;;;;;0.10;0.10;;;15.40;99.90;;;;;;5034782;28;20185;-79
2023/07/26 03:08:36;;;;;;;0.10;0.10;;;15.50;99.90;;;;;;5032259;28;20204;-80
2023/07/26 03:11:02;;;;;;;0.10;0.10;;;15.50;99.90;;;;;;5036520;28;20551;-79
2023/07/26 03:13:27;;;;;;;0.10;0.10;;;15.50;99.90;;;;;;5034894;28;20186;-79
2023/07/26 03:15:53;;;;;;;0.10;0.10;;;15.50;99.90;;;;;;5036028;28;20265;-79
2023/07/26 03:18:19;;;;;;;0.10;0.10;;;15.50;99.90;;;;;;5033831;28;20201;-79
2023/07/26 03:20:46;;;;;;;0.10;0.10;;;15.50;99.90;;;;;;5034083;28;20441;-79
2023/07/26 03:23:12;;;;;;;0.10;0.10;;;15.60;99.90;;;;;;5034644;28;20550;-79
2023/07/26 03:25:37;;;;;;;0.10;0.10;;;15.60;99.90;;;;;;5035317;28;20189;-79
2023/07/26 03:28:03;;;;;;;0.10;0.10;;;15.60;99.90;;;;;;5024377;28;20213;-79
2023/07/26 03:30:29;;;;;;;0.10;0.10;;;15.60;99.90;;;;;;5028682;28;20213;-79
2023/07/26 03:32:54;;;;;;;0.10;0.10;;;15.60;99.90;;;;;;5030178;28;20679;-79
2023/07/26 03:35:20;;;;;;;0.10;0.10;;;15.60;99.90;;;;;;5028274;28;20182;-79
2023/07/26 03:37:45;;;;;;;0.10;0.10;;;15.60;99.90;;;;;;5031403;28;20570;-79
2023/07/26 03:40:11;;;;;;;0.10;0.10;;;15.70;99.90;;;;;;5032528;28;20198;-79
2023/07/26 03:42:37;;;;;;;0.10;0.10;;;15.70;99.90;;;;;;5044692;28;20198;-79
2023/07/26 03:45:03;;;;;;;0.10;0.10;;;15.70;99.90;;;;;;5031127;28;20651;-79
2023/07/26 03:47:28;;;;;;;0.10;0.10;;;15.70;99.90;;;;;;5030566;28;20732;-79
2023/07/26 03:49:53;;;;;;;0.10;0.10;;;15.80;99.90;;;;;;5031630;28;20210;-79
2023/07/26 03:52:19;;;;;;;0.10;0.10;;;15.80;99.90;;;;;;5031970;28;20309;-79
2023/07/26 03:54:45;;;;;;;0.10;0.10;;;15.80;99.90;;;;;;5032427;28;20961;-79
2023/07/26 03:57:10;;;;;;;0.10;0.10;;;15.80;99.90;;;;;;5031091;28;20284;-79
2023/07/26 03:59:36;;;;;;;0.10;0.10;;;15.80;99.90;;;;;;5032447;28;20631;-79
2023/07/26 04:02:01;;;;;;;0.10;0.10;;;15.90;99.90;;;;;;5030032;28;20223;-79
2023/07/26 04:04:27;;;;;;;0.10;0.10;;;15.80;99.90;;;;;;5033380;28;20197;-79
2023/07/26 04:06:52;;;;;;;0.10;0.10;;;15.80;99.90;;;;;;5030432;28;20269;-79
2023/07/26 04:09:18;;;;;;;0.10;0.10;;;15.80;99.90;;;;;;5030820;28;20192;-79
2023/07/26 04:11:43;;;;;;;0.10;0.10;;;15.80;99.90;;;;;;5030841;28;20197;-79
2023/07/26 04:14:09;;;;;;;0.10;0.10;;;15.80;99.90;;;;;;5031230;28;20182;-79
2023/07/26 04:16:34;;;;;;;0.10;0.10;;;15.90;99.90;;;;;;5031553;28;20173;-79
2023/07/26 04:18:59;;;;;;;0.10;0.10;;;15.90;99.90;;;;;;5032416;28;20202;-80
2023/07/26 04:21:25;;;;;;;0.10;0.10;;;15.90;99.90;;;;;;5028959;28;20388;-80
2023/07/26 04:23:50;;;;;;;0.10;0.10;;;15.90;99.90;;;;;;5028605;28;20196;-80
2023/07/26 04:26:16;;;;;;;0.10;0.10;;;15.90;99.90;;;;;;5030573;28;20211;-80
2023/07/26 04:28:42;;;;;;;0.10;0.10;;;15.90;99.90;;;;;;5031452;28;20323;-80
2023/07/26 04:31:07;;;;;;;0.10;0.10;;;16.00;99.90;;;;;;5025729;28;20694;-80
2023/07/26 04:33:33;;;;;;;0.10;0.10;;;16.00;99.90;;;;;;5032178;28;20200;-80
2023/07/26 04:35:58;;;;;;;0.10;0.10;;;16.00;99.90;;;;;;5032981;28;20179;-79
2023/07/26 04:38:27;;;;;;;0.10;0.10;;;16.00;99.90;;;;;;5030876;28;20272;-79
2023/07/26 04:40:53;;;;;;;0.10;0.10;;;16.00;99.90;;;;;;5029854;28;20288;-79
2023/07/26 04:43:21;;;;;;;0.10;0.10;;;16.00;99.90;;;;;;5033256;28;20674;-77
2023/07/26 04:45:51;;;;;;;0.10;0.10;;;15.90;99.90;;;;;;5034562;28;20184;-77
2023/07/26 04:48:18;;;;;;;0.10;0.10;;;16.00;99.90;;;;;;5037489;28;20678;-77
2023/07/26 04:50:45;;;;;;;0.10;0.10;;;16.00;99.90;;;;;;5032657;28;20198;-77
2023/07/26 04:53:10;;;;;;;0.10;0.10;;;16.10;99.90;;;;;;5048433;28;20196;-77
2023/07/26 04:55:51;;;;;;;0.10;0.10;;;16.10;99.90;;;;;;5034368;28;20181;-77
2023/07/26 04:58:17;;;;;;;0.10;0.10;;;16.00;99.90;;;;;;5034980;28;20190;-77
2023/07/26 05:00:43;;;;;;;0.10;0.10;;;16.00;99.90;;;;;;5030818;28;20258;-77
2023/07/26 05:03:09;;;;;;;0.10;0.10;;;16.10;99.90;;;;;;5031543;28;20197;-77
2023/07/26 05:05:36;;;;;;;0.10;0.10;;;16.10;99.90;;;;;;5034649;28;20188;-77
2023/07/26 05:08:02;;;;;;;0.10;0.10;;;16.20;99.90;;;;;;5034378;28;20306;-77
2023/07/26 05:10:28;;;;;;;0.10;0.10;;;16.30;99.90;;;;;;5033145;28;20178;-77
2023/07/26 05:12:56;;;;;;;0.10;0.10;;;16.40;99.90;;;;;;5033103;28;20830;-78
2023/07/26 05:15:22;;;;;;;0.10;0.10;;;16.40;99.90;;;;;;5035166;28;20185;-78
2023/07/26 05:17:47;;;;;;;0.10;0.10;;;16.40;99.90;;;;;;5035223;28;20175;-78
2023/07/26 05:20:13;;;;;;;0.10;0.10;;;16.50;99.90;;;;;;5044253;28;20201;-80
2023/07/26 05:22:39;;;;;;;0.10;0.10;;;16.40;99.90;;;;;;5031611;28;20212;-82
2023/07/26 05:25:05;;;;;;;0.10;0.10;;;16.40;99.90;;;;;;5032611;28;20193;-81
2023/07/26 05:27:31;;;;;;;0.10;0.10;;;16.50;99.90;;;;;;5030582;28;20220;-79
2023/07/26 05:29:59;;;;;;;0.10;0.10;;;16.50;99.90;;;;;;5035319;28;20194;-79
2023/07/26 05:32:26;;;;;;;0.10;0.10;;;16.60;99.90;;;;;;5032943;28;20213;-80
2023/07/26 05:34:56;;;;;;;0.10;0.10;;;16.60;99.90;;;;;;5034010;28;20721;-82
2023/07/26 05:37:22;;;;;;;0.10;0.10;;;16.50;99.90;;;;;;5036252;28;20252;-79
2023/07/26 05:39:52;;;;;;;0.10;0.10;;;16.50;99.90;;;;;;5034497;28;20201;-82
2023/07/26 05:42:18;;;;;;;0.10;0.10;;;16.60;99.90;;;;;;5032661;28;20218;-83
2023/07/26 05:44:44;;;;;;;0.10;0.10;;;16.50;99.90;;;;;;5033377;28;20185;-79
2023/07/26 05:47:10;;;;;;;0.10;0.10;;;16.60;99.90;;;;;;5032151;28;20213;-79
2023/07/26 05:49:36;;;;;;;0.10;0.10;;;16.50;99.90;;;;;;5033235;28;20191;-79
2023/07/26 05:52:03;;;;;;;0.10;0.10;;;16.40;99.90;;;;;;5035479;28;20591;-81
2023/07/26 05:54:28;;;;;;;0.10;0.10;;;16.30;99.90;;;;;;5041441;28;20186;-81
2023/07/26 05:56:54;;;;;;;0.10;0.10;;;16.20;99.90;;;;;;5039726;28;20195;-84
2023/07/26 05:59:20;;;;;;;0.10;0.10;;;16.20;99.90;;;;;;5033707;28;20190;-80
2023/07/26 06:01:46;;;;;;;0.10;0.10;;;16.30;99.90;;;;;;5033931;28;20704;-80
2023/07/26 06:04:11;;;;;;;0.10;0.10;;;16.20;99.90;;;;;;5031511;28;20222;-80
2023/07/26 06:06:37;;;;;;;0.10;0.10;;;16.20;99.90;;;;;;5030481;28;20718;-80
2023/07/26 06:09:04;;;;;;;0.10;0.10;;;16.10;99.90;;;;;;5033867;28;20214;-82
2023/07/26 06:11:30;;;;;;;0.10;0.10;;;16.10;99.90;;;;;;5037554;28;20320;-84
2023/07/26 06:13:56;;;;;;;0.10;0.10;;;16.10;99.90;;;;;;5031741;28;20714;-85
2023/07/26 06:16:21;;;;;;;0.10;0.10;;;16.00;99.90;;;;;;5030072;28;20729;-84
2023/07/26 06:18:49;;;;;;;0.10;0.10;;;16.00;99.90;;;;;;5033646;28;20201;-84
2023/07/26 06:21:15;;;;;;;0.10;0.10;;;16.00;99.90;;;;;;5033225;28;20213;-83
2023/07/26 06:23:41;;;;;;;0.10;0.10;;;16.00;99.90;;;;;;5032842;28;20200;-84
2023/07/26 06:26:06;;;;;;;0.10;0.10;;;16.10;99.90;;;;;;5033963;28;21109;-85
2023/07/26 06:28:32;;;;;;;0.10;0.10;;;16.30;99.90;;;;;;5033679;28;20213;-83
2023/07/26 06:30:57;;;;;;;0.10;0.10;;;16.40;99.90;;;;;;5032070;28;20209;-82
2023/07/26 06:33:23;;;;;;;0.10;0.10;;;16.40;99.90;;;;;;5036831;28;20197;-82
2023/07/26 06:35:48;;;;;;;0.10;0.10;;;16.60;99.90;;;;;;5030576;28;20644;-80
2023/07/26 06:38:14;;;;;;;0.10;0.10;;;16.70;99.90;;;;;;5031454;28;21120;-80
2023/07/26 06:40:39;;;;;;;0.10;0.10;;;16.90;99.90;;;;;;5029567;28;20213;-80
2023/07/26 06:43:06;;;;;;;0.10;0.10;;;16.90;99.90;;;;;;5035513;28;20197;-81
2023/07/26 06:45:32;;;;;;;0.10;0.10;;;17.00;99.90;;;;;;5038760;28;20192;-80
2023/07/26 06:47:58;;;;;;;0.10;0.10;;;17.00;99.90;;;;;;5034437;28;20209;-81
2023/07/26 06:50:23;;;;;;;0.10;0.10;;;17.00;99.90;;;;;;5034258;28;20185;-81
2023/07/26 06:52:49;;;;;;;0.10;0.10;;;17.00;99.90;;;;;;5037837;28;20186;-81
2023/07/26 06:55:14;;;;;;;0.10;0.10;;;17.10;99.90;;;;;;5039139;28;20186;-81
2023/07/26 06:57:40;;;;;;;0.10;0.10;;;17.10;99.90;;;;;;5039190;28;20213;-80
2023/07/26 07:00:06;;;;;;;0.10;0.10;;;17.20;99.90;;;;;;5036648;28;20272;-82
2023/07/26 07:02:32;;;;;;;0.10;0.10;;;17.20;99.90;;;;;;5034978;28;20209;-80
2023/07/26 07:04:57;;;;;;;0.10;0.10;;;17.20;99.90;;;;;;5036120;28;20197;-80
2023/07/26 07:07:23;;;;;;;0.10;0.10;;;17.30;99.90;;;;;;5034683;28;20205;-80
2023/07/26 07:09:48;;;;;;;0.10;0.10;;;17.40;99.90;;;;;;5038088;28;20606;-81
2023/07/26 07:12:16;;;;;;;0.10;0.10;;;17.40;99.90;;;;;;5035694;28;21204;-80
2023/07/26 07:14:42;;;;;;;0.10;0.10;;;17.50;99.90;;;;;;5036256;28;20213;-80
2023/07/26 07:17:08;;;;;;;0.10;0.10;;;17.60;99.90;;;;;;5036992;28;20225;-81
2023/07/26 07:19:33;;;;;;;0.10;0.10;;;17.70;99.90;;;;;;5034246;28;20182;-81
2023/07/26 07:21:59;;;;;;;0.10;0.10;;;17.80;99.90;;;;;;5035539;28;20198;-80
2023/07/26 07:24:25;;;;;;;0.10;0.10;;;17.90;99.90;;;;;;5033604;28;20980;-81
2023/07/26 07:26:51;;;;;;;0.10;0.10;;;18.00;99.90;;;;;;5037463;28;20197;-81
2023/07/26 07:29:16;;;;;;;0.10;0.10;;;17.90;99.90;;;;;;5036694;28;20256;-81
2023/07/26 07:31:42;;;;;;;0.10;0.10;;;18.00;99.90;;;;;;5032199;28;20214;-80
2023/07/26 07:34:07;;;;;;;0.10;0.10;;;18.00;99.90;;;;;;5034727;28;20266;-81
2023/07/26 07:36:33;;;;;;;0.10;0.10;;;18.20;99.90;;;;;;5033291;28;20166;-80
2023/07/26 07:38:58;;;;;;;0.10;0.10;;;18.10;99.90;;;;;;5034558;28;20546;-80
2023/07/26 07:41:24;;;;;;;0.10;0.10;;;18.10;99.90;;;;;;5031126;28;21011;-78
2023/07/26 07:43:49;;;;;;;0.10;0.10;;;18.30;99.90;;;;;;5032558;28;20435;-78
2023/07/26 07:46:15;;;;;;;0.10;0.10;;;18.50;99.90;;;;;;5032159;28;20535;-79
2023/07/26 07:48:41;;;;;;;0.10;0.10;;;18.80;99.90;;;;;;5033150;28;20206;-80
2023/07/26 07:51:07;;;;;;;0.10;0.10;;;18.90;99.90;;;;;;5032171;28;20295;-81
2023/07/26 07:53:32;;;;;;;0.10;0.10;;;19.10;99.90;;;;;;5031164;28;20178;-81
2023/07/26 07:55:58;;;;;;;0.10;0.10;;;19.10;99.90;;;;;;5032568;28;20185;-80
2023/07/26 07:58:25;;;;;;;0.10;0.10;;;19.30;99.90;;;;;;5030290;28;20773;-81
2023/07/26 08:00:56;;;;;;;0.10;0.10;;;19.40;99.90;;;;;;5029901;28;21167;-81
2023/07/26 08:03:22;;;;;;;0.10;0.10;;;19.50;99.90;;;;;;5034425;28;20276;-81
2023/07/26 08:05:47;;;;;;;0.10;0.10;;;19.70;99.90;;;;;;5032341;28;20258;-81
2023/07/26 08:08:13;;;;;;;0.10;0.10;;;19.90;99.90;;;;;;5033113;28;20215;-81
2023/07/26 08:10:38;;;;;;;0.10;0.10;;;20.10;99.90;;;;;;5036110;28;20210;-81
2023/07/26 08:13:04;;;;;;;0.10;0.10;;;20.40;99.90;;;;;;5030574;28;20299;-81
2023/07/26 08:15:32;;;;;;;0.10;0.10;;;20.70;99.90;;;;;;5030999;28;20225;-81
2023/07/26 08:17:59;;;;;;;0.10;0.10;;;21.00;99.90;;;;;;5037441;28;20281;-80
2023/07/26 08:20:25;;;;;;;0.10;0.10;;;21.10;99.90;;;;;;5037177;28;20274;-81
2023/07/26 08:22:50;;;;;;;0.10;0.10;;;21.10;99.90;;;;;;5036938;28;20321;-80
2023/07/26 08:25:16;;;;;;;0.10;0.10;;;20.90;99.90;;;;;;5035269;28;20202;-80
2023/07/26 08:27:42;;;;;;;0.10;0.10;;;20.70;99.90;;;;;;5035987;28;20201;-81
2023/07/26 08:30:08;;;;;;;0.10;0.10;;;20.90;99.90;;;;;;5033713;28;20224;-80
2023/07/26 08:32:34;;;;;;;0.10;0.10;;;21.00;99.90;;;;;;5031257;28;20225;-81
2023/07/26 08:34:59;;;;;;;0.10;0.10;;;20.70;99.90;;;;;;5040698;28;20319;-80
2023/07/26 08:37:25;;;;;;;0.10;0.10;;;20.70;99.90;;;;;;5031377;28;20738;-81
2023/07/26 08:39:50;;;;;;;0.10;0.10;;;20.60;99.90;;;;;;5032493;28;20201;-82
2023/07/26 08:42:16;;;;;;;0.10;0.10;;;20.80;99.90;;;;;;5034257;28;20237;-80
2023/07/26 08:44:42;;;;;;;0.10;0.10;;;20.70;99.90;;;;;;5035392;28;20186;-81
2023/07/26 08:47:10;;;;;;;0.10;0.10;;;20.70;99.90;;;;;;5033876;28;20191;-81
2023/07/26 08:49:36;;;;;;;0.10;0.10;;;20.70;99.90;;;;;;5032525;28;20277;-81
2023/07/26 08:52:03;;;;;;;0.10;0.10;;;20.60;99.90;;;;;;5033403;28;20240;-81
2023/07/26 08:54:29;;;;;;;0.10;0.10;;;20.70;99.90;;;;;;5032218;28;20186;-81
2023/07/26 08:56:55;;;;;;;0.10;0.10;;;20.70;99.90;;;;;;5035024;28;20179;-81
2023/07/26 08:59:20;;;;;;;0.10;0.10;;;20.80;99.90;;;;;;5030399;28;20205;-80
2023/07/26 09:01:47;;;;;;;0.10;0.10;;;20.50;99.90;;;;;;5031596;28;20221;-81
2023/07/26 09:04:12;;;;;;;0.10;0.10;;;20.80;99.90;;;;;;5048599;28;20251;-80
2023/07/26 09:06:40;;;;;;;0.10;0.10;;;21.00;99.90;;;;;;5032858;28;20190;-81
2023/07/26 09:09:06;;;;;;;0.10;0.10;;;21.30;99.90;;;;;;5036347;28;20205;-81
2023/07/26 09:11:33;;;;;;;0.10;0.10;;;21.80;99.90;;;;;;5036229;28;20364;-81
2023/07/26 09:14:02;;;;;;;0.10;0.10;;;22.10;99.90;;;;;;5033101;28;20229;-81
2023/07/26 09:16:31;;;;;;;0.10;0.10;;;21.70;99.90;;;;;;5033649;28;20678;-81
2023/07/26 09:19:02;;;;;;;0.10;0.10;;;21.60;99.90;;;;;;5034225;28;20191;-81
2023/07/26 09:21:30;;;;;;;0.10;0.10;;;20.90;99.90;;;;;;5030786;28;20233;-81
2023/07/26 09:23:57;;;;;;;0.10;0.10;;;20.90;99.90;;;;;;5035771;28;20202;-83
2023/07/26 09:26:40;;;;;;;0.10;0.10;;;21.00;99.90;;;;;;5039426;28;20190;-83
2023/07/26 09:29:11;;;;;;;0.10;0.10;;;20.70;99.90;;;;;;5040868;28;20240;-82
2023/07/26 09:31:44;;;;;;;0.10;0.10;;;20.80;99.90;;;;;;5037639;28;20217;-83
2023/07/26 09:34:16;;;;;;;0.10;0.10;;;21.20;99.90;;;;;;5040703;28;20210;-82
2023/07/26 09:36:50;;;;;;;0.10;0.10;;;21.80;99.90;;;;;;5039698;28;20192;-82
2023/07/26 09:39:20;;;;;;;0.10;0.10;;;22.10;99.90;;;;;;5040324;28;20234;-82
2023/07/26 09:41:46;;;;;;;0.10;0.10;;;22.30;99.90;;;;;;5037736;28;20237;-82
2023/07/26 09:44:21;;;;;;;0.10;0.10;;;22.20;99.90;;;;;;5037385;28;21204;-82
2023/07/26 09:46:57;;;;;;;0.10;0.10;;;22.40;99.90;;;;;;5034500;28;20539;-80
2023/07/26 09:49:32;;;;;;;0.10;0.10;;;22.50;99.90;;;;;;5033325;28;20222;-80
2023/07/26 09:51:59;;;;;;;0.10;0.10;;;22.50;99.90;;;;;;5029251;28;20205;-84
2023/07/26 09:54:32;;;;;;;0.10;0.10;;;22.30;99.90;;;;;;5034237;28;20186;-83
2023/07/26 09:56:58;;;;;;;0.10;0.10;;;22.30;99.90;;;;;;5033863;28;20192;-83
2023/07/26 09:59:27;;;;;;;0.10;0.10;;;22.50;99.90;;;;;;5031824;28;20663;-83
2023/07/26 10:01:53;;;;;;;0.10;0.10;;;22.30;99.90;;;;;;5035244;28;20733;-83
2023/07/26 10:04:27;;;;;;;0.10;0.10;;;22.10;99.90;;;;;;5032351;28;20182;-84
2023/07/26 10:06:56;;;;;;;0.10;0.10;;;21.80;99.90;;;;;;5035659;28;20217;-83
2023/07/26 10:09:24;;;;;;;0.10;0.10;;;21.90;99.90;;;;;;5053545;28;20214;-82
2023/07/26 10:11:51;;;;;;;0.10;0.10;;;21.80;99.90;;;;;;5036020;28;20213;-80
2023/07/26 10:14:19;;;;;;;0.10;0.10;;;21.90;99.90;;;;;;5030611;28;20192;-84
2023/07/26 10:16:45;;;;;;;0.10;0.10;;;22.00;99.90;;;;;;5035045;28;20675;-83
2023/07/26 10:19:11;;;;;;;0.10;0.10;;;22.00;99.90;;;;;;5036704;28;20644;-83
2023/07/26 10:21:38;;;;;;;0.10;0.10;;;21.90;99.90;;;;;;5033080;28;20773;-84
2023/07/26 10:24:04;;;;;;;0.10;0.10;;;21.90;99.90;;;;;;5036541;28;20300;-83
2023/07/26 10:26:32;;;;;;;0.10;0.10;;;21.90;99.90;;;;;;5034267;28;20229;-83
2023/07/26 10:28:59;;;;;;;0.10;0.10;;;22.00;99.90;;;;;;5034623;28;20270;-82
2023/07/26 10:31:29;;;;;;;0.10;0.10;;;21.70;99.90;;;;;;5037306;28;20237;-83
2023/07/26 10:33:56;;;;;;;0.10;0.10;;;21.50;99.90;;;;;;5034342;28;20186;-82
2023/07/26 10:36:27;;;;;;;0.10;0.10;;;21.50;99.90;;;;;;5037013;28;20201;-81
2023/07/26 10:38:52;;;;;;;0.10;0.10;;;21.50;99.90;;;;;;5036129;28;20186;-83
2023/07/26 10:41:23;;;;;;;0.10;0.10;;;21.40;99.90;;;;;;5033352;28;21288;-83
2023/07/26 10:43:50;;;;;;;0.10;0.10;;;21.30;99.90;;;;;;5035214;28;20194;-83
2023/07/26 10:46:16;;;;;;;0.10;0.10;;;21.30;99.90;;;;;;5034268;28;20195;-83
2023/07/26 10:48:42;;;;;;;0.10;0.10;;;21.10;99.90;;;;;;5036237;28;20206;-83
2023/07/26 10:51:26;;;;;;;0.10;0.10;;;21.20;99.90;;;;;;5036932;28;20214;-82
2023/07/26 10:53:53;;;;;;;0.10;0.10;;;21.30;99.90;;;;;;5034848;28;20224;-83
2023/07/26 10:56:23;;;;;;;0.10;0.10;;;21.20;99.90;;;;;;5034308;28;20182;-83
2023/07/26 10:58:52;;;;;;;0.10;0.10;;;21.00;99.90;;;;;;5036708;28;20177;-82
2023/07/26 11:01:47;;;;;;;0.10;0.10;;;20.90;99.90;;;;;;5035362;28;20237;-82
2023/07/26 11:04:20;;;;;;;0.10;0.10;;;21.10;99.90;;;;;;5037025;28;20550;-82
2023/07/26 11:06:57;;;;;;;0.10;0.10;;;21.00;99.90;;;;;;5034452;28;20658;-82
2023/07/26 11:09:25;;;;;;;0.10;0.10;;;20.80;99.90;;;;;;5033618;28;20201;-82
2023/07/26 11:12:13;;;;;;;0.10;0.10;;;20.70;99.90;;;;;;5030554;28;20682;-83
2023/07/26 11:14:39;;;;;;;0.10;0.10;;;20.50;99.90;;;;;;5034436;28;20256;-83
2023/07/26 11:17:11;;;;;;;0.10;0.10;;;20.30;99.90;;;;;;5034754;28;20238;-82
2023/07/26 11:19:50;;;;;;;0.10;0.10;;;19.80;99.90;;;;;;5033573;28;20502;-83
2023/07/26 11:22:18;;;;;;;0.10;0.10;;;19.20;99.90;;;;;;5034103;28;20216;-82
2023/07/26 11:24:43;;;;;;;0.10;0.10;;;18.90;99.90;;;;;;5034433;28;20507;-83
2023/07/26 11:27:10;;;;;;;0.10;0.10;;;18.50;99.90;;;;;;5035153;28;20215;-82
2023/07/26 11:29:36;;;;;;;0.10;0.10;;;18.30;99.90;;;;;;5031108;28;21018;-83
2023/07/26 11:32:03;;;;;;;0.10;0.10;;;18.40;99.90;;;;;;5033126;28;20228;-82
2023/07/26 11:34:29;;;;;;;0.10;0.10;;;18.60;99.90;;;;;;5035795;28;20647;-82
2023/07/26 11:37:14;;;;;;;0.10;0.10;;;18.60;99.90;;;;;;5034277;28;20178;-82
2023/07/26 11:39:40;;;;;;;0.10;0.10;;;19.00;99.90;;;;;;5034167;28;20197;-82
2023/07/26 11:42:06;;;;;;;0.10;0.10;;;19.10;99.90;;;;;;5032257;28;20212;-82
2023/07/26 11:44:32;;;;;;;0.10;0.10;;;19.50;99.90;;;;;;5032283;28;20182;-84
2023/07/26 11:47:00;;;;;;;0.10;0.10;;;19.30;99.90;;;;;;5029717;28;20308;-81
2023/07/26 11:49:26;;;;;;;0.10;0.10;;;19.30;99.90;;;;;;5034990;28;20202;-82
2023/07/26 11:51:51;;;;;;;0.10;0.10;;;19.50;99.90;;;;;;5036710;28;20241;-83
2023/07/26 11:54:17;;;;;;;0.10;0.10;;;19.80;99.90;;;;;;5033873;28;20178;-81
2023/07/26 11:56:43;;;;;;;0.10;0.10;;;20.00;99.90;;;;;;5036292;28;20176;-81
2023/07/26 11:59:10;;;;;;;0.10;0.10;;;20.30;99.90;;;;;;5035441;28;20200;-82
2023/07/26 12:01:37;;;;;;;0.10;0.10;;;20.70;99.90;;;;;;5036764;28;20245;-81
2023/07/26 12:04:12;;;;;;;0.10;0.10;;;20.90;99.90;;;;;;5039916;28;20984;-82
2023/07/26 12:06:40;;;;;;;0.10;0.10;;;20.90;99.90;;;;;;5043461;28;20182;-82
2023/07/26 12:09:09;;;;;;;0.10;0.10;;;20.80;99.90;;;;;;5041475;28;20209;-82
2023/07/26 12:11:37;;;;;;;0.10;0.10;;;21.00;99.90;;;;;;5040361;28;20201;-82
2023/07/26 12:14:02;;;;;;;0.10;0.10;;;20.90;99.90;;;;;;5040968;28;20200;-82
2023/07/26 12:16:28;;;;;;;0.10;0.10;;;20.90;99.90;;;;;;5039536;28;20733;-82
2023/07/26 12:18:57;;;;;;;0.10;0.10;;;21.10;99.90;;;;;;5047037;28;20181;-82
2023/07/26 12:21:24;;;;;;;0.10;0.10;;;21.60;99.90;;;;;;5036801;28;20202;-82
2023/07/26 12:23:58;;;;;;;0.10;0.10;;;21.70;99.90;;;;;;5040381;28;20229;-82
2023/07/26 12:26:29;;;;;;;0.10;0.10;;;21.90;99.90;;;;;;5036854;28;20182;-82
2023/07/26 12:28:55;;;;;;;0.10;0.10;;;22.10;99.90;;;;;;5040780;28;20515;-82
2023/07/26 12:31:24;;;;;;;0.10;0.10;;;22.20;99.90;;;;;;5037821;28;20216;-82
2023/07/26 12:33:56;;;;;;;0.10;0.10;;;22.60;99.90;;;;;;5037220;28;20193;-82
2023/07/26 12:36:24;;;;;;;0.10;0.10;;;22.50;99.90;;;;;;5036901;28;20197;-82
2023/07/26 12:38:50;;;;;;;0.10;0.10;;;21.90;99.90;;;;;;5053119;28;20195;-82
2023/07/26 12:41:15;;;;;;;0.10;0.10;;;22.10;99.90;;;;;;5040045;28;20289;-82
2023/07/26 12:43:41;;;;;;;0.10;0.10;;;22.20;99.90;;;;;;5037944;28;20215;-83
2023/07/26 12:46:06;;;;;;;0.10;0.10;;;22.40;99.90;;;;;;5038668;28;20670;-82